Time;durP1;ratioP1;P1;durP2;ratioP2;P2;SDS_P1;SDS_P2;PMS_P1;PMS_P2;Temp;Humidity;BMP_temperature;BMP_pressure;BME280_temperature;BME280_humidity;BME280_pressure;Samples;Min_cycle;Max_cycle;Signal;HPM_P1;HPM_P2
2022/02/17 00:01:51;;;;;;;22.30;2.80;;;11.50;99.90;;;;;;5031986;28;20030;-65
2022/02/17 00:04:16;;;;;;;26.25;3.80;;;11.50;99.90;;;;;;5032103;28;20018;-67
2022/02/17 00:06:42;;;;;;;19.02;2.95;;;11.40;99.90;;;;;;5031252;28;20096;-67
2022/02/17 00:09:08;;;;;;;17.73;3.38;;;11.40;99.90;;;;;;5031872;28;20037;-67
2022/02/17 00:11:34;;;;;;;22.13;2.88;;;11.40;99.90;;;;;;5032081;28;20560;-66
2022/02/17 00:14:00;;;;;;;11.13;1.73;;;11.30;99.90;;;;;;5027944;28;20095;-65
2022/02/17 00:16:25;;;;;;;7.75;2.15;;;11.20;99.90;;;;;;5032418;28;20485;-65
2022/02/17 00:18:51;;;;;;;20.25;2.22;;;11.20;99.90;;;;;;5029802;28;20078;-67
2022/02/17 00:21:17;;;;;;;14.45;1.98;;;11.20;99.90;;;;;;5031633;28;20387;-67
2022/02/17 00:23:42;;;;;;;21.95;2.83;;;11.20;99.90;;;;;;5032019;28;20139;-66
2022/02/17 00:26:08;;;;;;;11.13;1.88;;;11.20;99.90;;;;;;5031754;28;20036;-67
2022/02/17 00:28:34;;;;;;;21.05;3.38;;;11.20;99.90;;;;;;5031829;28;20025;-67
2022/02/17 00:31:00;;;;;;;13.10;2.28;;;11.20;99.90;;;;;;5031456;28;20034;-67
2022/02/17 00:33:25;;;;;;;15.13;2.60;;;11.20;99.90;;;;;;5030826;28;20044;-66
2022/02/17 00:35:51;;;;;;;23.23;3.50;;;11.20;99.90;;;;;;5031011;28;20065;-66
2022/02/17 00:38:17;;;;;;;12.40;2.58;;;11.20;99.90;;;;;;5030900;28;20037;-67
2022/02/17 00:40:42;;;;;;;16.92;2.50;;;11.20;99.90;;;;;;5031578;28;20036;-67
2022/02/17 00:43:08;;;;;;;11.48;2.08;;;11.10;99.90;;;;;;5032136;28;20033;-67
2022/02/17 00:45:34;;;;;;;10.18;2.38;;;10.90;99.90;;;;;;5031899;28;20048;-66
2022/02/17 00:47:59;;;;;;;11.50;1.98;;;10.70;99.90;;;;;;5030872;28;20026;-68
2022/02/17 00:50:25;;;;;;;19.45;2.10;;;10.60;99.90;;;;;;5030644;28;20044;-67
2022/02/17 00:52:51;;;;;;;20.10;1.98;;;10.60;99.90;;;;;;5031289;28;20034;-67
2022/02/17 00:55:16;;;;;;;12.90;1.40;;;10.40;99.90;;;;;;5030790;28;20481;-67
2022/02/17 00:57:42;;;;;;;10.57;2.17;;;10.30;99.90;;;;;;5031410;28;20033;-65
2022/02/17 01:00:08;;;;;;;12.18;2.65;;;10.30;99.90;;;;;;5030759;28;20073;-67
2022/02/17 01:02:33;;;;;;;9.25;1.13;;;10.30;99.90;;;;;;5030988;28;20042;-66
2022/02/17 01:04:59;;;;;;;8.80;1.75;;;10.30;99.90;;;;;;5031107;28;20029;-67
2022/02/17 01:07:25;;;;;;;10.25;1.23;;;10.10;99.90;;;;;;5031614;28;20550;-64
2022/02/17 01:09:50;;;;;;;11.45;1.42;;;10.10;99.90;;;;;;5031024;28;20444;-67
2022/02/17 01:12:16;;;;;;;16.65;2.22;;;10.10;99.90;;;;;;5030702;28;20389;-67
2022/02/17 01:14:42;;;;;;;8.15;1.15;;;10.00;99.90;;;;;;5031503;28;20033;-66
2022/02/17 01:17:09;;;;;;;10.98;0.88;;;10.00;99.90;;;;;;5029891;28;20049;-67
2022/02/17 01:19:35;;;;;;;10.50;2.15;;;9.90;99.90;;;;;;5029392;28;20101;-67
2022/02/17 01:22:01;;;;;;;12.35;2.13;;;9.90;99.90;;;;;;5030299;28;20034;-67
2022/02/17 01:24:27;;;;;;;18.77;2.53;;;9.80;99.90;;;;;;5031262;28;20493;-67
2022/02/17 01:26:52;;;;;;;11.85;1.98;;;9.90;99.90;;;;;;5029834;28;20060;-67
2022/02/17 01:29:18;;;;;;;22.20;1.88;;;9.90;99.90;;;;;;5030189;28;20124;-67
2022/02/17 01:31:44;;;;;;;20.45;2.60;;;9.90;99.90;;;;;;5029354;28;20037;-67
2022/02/17 01:34:09;;;;;;;16.80;2.75;;;9.90;99.90;;;;;;5030636;28;20061;-67
2022/02/17 01:36:35;;;;;;;16.45;2.25;;;9.90;99.90;;;;;;5030909;28;20060;-66
2022/02/17 01:39:00;;;;;;;13.40;2.85;;;9.80;99.90;;;;;;5030158;28;20091;-67
2022/02/17 01:41:26;;;;;;;27.67;2.63;;;9.90;99.90;;;;;;5029711;28;20037;-67
2022/02/17 01:43:52;;;;;;;11.32;1.60;;;9.90;99.90;;;;;;5030399;28;20119;-67
2022/02/17 01:46:38;;;;;;;14.15;2.67;;;9.90;99.90;;;;;;5030414;28;20474;-67
2022/02/17 01:49:05;;;;;;;16.92;1.25;;;9.90;99.90;;;;;;5027174;28;20687;-67
2022/02/17 01:51:30;;;;;;;14.20;2.42;;;10.00;99.90;;;;;;5030388;28;20021;-68
2022/02/17 01:54:04;;;;;;;12.23;2.20;;;10.00;99.90;;;;;;5029835;28;20034;-67
2022/02/17 01:56:32;;;;;;;17.02;2.42;;;9.90;99.90;;;;;;5027097;28;20033;-67
2022/02/17 01:59:02;;;;;;;20.48;3.75;;;9.90;99.90;;;;;;5029911;28;20038;-65
2022/02/17 02:01:29;;;;;;;12.88;2.67;;;10.00;99.90;;;;;;5030085;28;20044;-68
2022/02/17 02:03:54;;;;;;;21.80;2.83;;;10.00;99.90;;;;;;5029784;28;20040;-69
2022/02/17 02:06:20;;;;;;;20.55;3.13;;;10.00;99.90;;;;;;5028916;28;20033;-66
2022/02/17 02:08:46;;;;;;;22.88;2.58;;;10.10;99.90;;;;;;5029957;28;20036;-65
2022/02/17 02:11:12;;;;;;;13.18;3.45;;;10.10;99.90;;;;;;5029510;28;20499;-66
2022/02/17 02:13:37;;;;;;;20.63;3.20;;;10.20;99.90;;;;;;5030234;28;20037;-65
2022/02/17 02:16:04;;;;;;;13.45;1.75;;;10.30;99.90;;;;;;5029701;28;20026;-67
2022/02/17 02:18:30;;;;;;;13.70;2.33;;;10.20;99.90;;;;;;5029793;28;20045;-67
2022/02/17 02:20:57;;;;;;;20.25;3.15;;;10.30;99.90;;;;;;5029276;28;20482;-64
2022/02/17 02:23:23;;;;;;;11.90;1.60;;;10.20;99.90;;;;;;5026222;28;20056;-67
2022/02/17 02:25:52;;;;;;;13.88;2.42;;;10.30;99.90;;;;;;5029883;28;20034;-67
2022/02/17 02:28:20;;;;;;;14.18;2.15;;;10.30;99.90;;;;;;5029451;28;20029;-67
2022/02/17 02:30:47;;;;;;;9.73;1.92;;;10.30;99.90;;;;;;5029512;28;20497;-67
2022/02/17 02:33:12;;;;;;;12.93;2.30;;;10.20;99.90;;;;;;5029473;28;20563;-67
2022/02/17 02:35:39;;;;;;;12.65;2.50;;;10.30;99.90;;;;;;5029507;28;20033;-67
2022/02/17 02:38:05;;;;;;;17.88;2.88;;;10.20;99.90;;;;;;5029406;28;20040;-67
2022/02/17 02:40:30;;;;;;;19.88;2.60;;;10.10;99.90;;;;;;5027777;28;20052;-68
2022/02/17 02:42:56;;;;;;;14.32;2.67;;;10.10;99.90;;;;;;5028186;28;20033;-67
2022/02/17 02:45:21;;;;;;;20.75;2.63;;;10.10;99.90;;;;;;5029827;28;20120;-67
2022/02/17 02:47:47;;;;;;;13.95;2.40;;;10.10;99.90;;;;;;5028574;28;20034;-67
2022/02/17 02:50:13;;;;;;;14.85;2.03;;;10.10;99.90;;;;;;5028934;28;20460;-67
2022/02/17 02:52:38;;;;;;;9.40;1.90;;;10.20;99.90;;;;;;5029797;28;20401;-66
2022/02/17 02:55:04;;;;;;;6.95;2.13;;;10.20;99.90;;;;;;5029305;28;20095;-66
2022/02/17 02:57:30;;;;;;;15.15;2.35;;;10.30;99.90;;;;;;5032750;28;20069;-67
2022/02/17 02:59:55;;;;;;;13.77;2.47;;;10.30;99.90;;;;;;5033108;28;20060;-67
2022/02/17 03:02:21;;;;;;;14.07;2.47;;;10.30;99.90;;;;;;5033781;28;20064;-67
2022/02/17 03:04:46;;;;;;;12.07;2.33;;;10.30;99.90;;;;;;5033543;28;20037;-65
2022/02/17 03:07:12;;;;;;;11.27;2.15;;;10.20;99.90;;;;;;5033402;28;20557;-68
2022/02/17 03:09:37;;;;;;;9.98;1.83;;;10.20;99.90;;;;;;5032151;28;20397;-67
2022/02/17 03:12:03;;;;;;;11.88;1.40;;;10.10;99.90;;;;;;5032843;28;20034;-67
2022/02/17 03:14:29;;;;;;;18.83;2.60;;;10.00;99.90;;;;;;5033774;28;20033;-65
2022/02/17 03:16:54;;;;;;;12.98;1.83;;;9.90;99.90;;;;;;5032361;28;20029;-69
2022/02/17 03:19:20;;;;;;;8.25;1.75;;;9.90;99.90;;;;;;5033267;28;20037;-65
2022/02/17 03:21:45;;;;;;;12.15;2.28;;;9.80;99.90;;;;;;5033148;28;20374;-66
2022/02/17 03:24:11;;;;;;;12.93;2.47;;;9.80;99.90;;;;;;5032861;28;20029;-66
2022/02/17 03:26:37;;;;;;;14.05;2.58;;;9.70;99.90;;;;;;5033164;28;20041;-67
2022/02/17 03:29:03;;;;;;;16.13;2.22;;;9.70;99.90;;;;;;5032806;28;20032;-67
2022/02/17 03:31:29;;;;;;;19.63;3.55;;;9.70;99.90;;;;;;5032970;28;20033;-67
2022/02/17 03:33:55;;;;;;;17.80;2.35;;;9.70;99.90;;;;;;5032890;28;20515;-67
2022/02/17 03:36:20;;;;;;;16.83;2.97;;;9.70;99.90;;;;;;5033184;28;20033;-65
2022/02/17 03:38:46;;;;;;;15.27;3.20;;;9.70;99.90;;;;;;5033215;28;20033;-67
2022/02/17 03:41:11;;;;;;;10.05;2.33;;;9.70;99.90;;;;;;5031093;28;20050;-67
2022/02/17 03:43:37;;;;;;;14.35;2.58;;;9.60;99.90;;;;;;5037015;28;20029;-67
2022/02/17 03:46:03;;;;;;;19.42;2.97;;;9.60;99.90;;;;;;5032355;28;20479;-68
2022/02/17 03:48:28;;;;;;;13.60;1.88;;;9.60;99.90;;;;;;5032976;28;20079;-66
2022/02/17 03:50:54;;;;;;;16.85;2.83;;;9.60;99.90;;;;;;5030895;28;20132;-68
2022/02/17 03:53:19;;;;;;;12.82;2.88;;;9.50;99.90;;;;;;5032893;28;20116;-66
2022/02/17 03:55:45;;;;;;;16.33;2.17;;;9.50;99.90;;;;;;5032876;28;20121;-67
2022/02/17 03:59:00;;;;;;;20.17;2.05;;;9.50;99.90;;;;;;5032516;28;20555;-67
2022/02/17 04:00:56;;;;;;;21.02;3.85;;;9.50;99.90;;;;;;5029174;28;20037;-67
2022/02/17 04:03:22;;;;;;;20.75;2.60;;;9.50;99.90;;;;;;5032819;28;20106;-67
2022/02/17 04:05:47;;;;;;;18.20;2.83;;;9.40;99.90;;;;;;5031159;28;20063;-67
2022/02/17 04:08:14;;;;;;;19.13;3.65;;;9.40;99.90;;;;;;5032119;28;20036;-67
2022/02/17 04:10:40;;;;;;;13.75;3.63;;;9.40;99.90;;;;;;5030906;28;20029;-67
2022/02/17 04:13:05;;;;;;;15.68;2.50;;;9.40;99.90;;;;;;5032035;28;20037;-67
2022/02/17 04:15:31;;;;;;;17.05;2.45;;;9.40;99.90;;;;;;5032625;28;20051;-67
2022/02/17 04:17:56;;;;;;;13.38;3.25;;;9.40;99.90;;;;;;5031850;28;20049;-67
2022/02/17 04:20:22;;;;;;;19.30;2.97;;;9.30;99.90;;;;;;5032123;28;20041;-67
2022/02/17 04:22:48;;;;;;;31.02;4.25;;;9.30;99.90;;;;;;5032711;28;20436;-67
2022/02/17 04:25:13;;;;;;;18.52;2.70;;;9.30;99.90;;;;;;5031649;28;20511;-66
2022/02/17 04:27:39;;;;;;;19.95;3.10;;;9.40;99.90;;;;;;5032156;28;20049;-67
2022/02/17 04:30:06;;;;;;;22.35;2.75;;;9.40;99.90;;;;;;5031571;28;20063;-67
2022/02/17 04:32:31;;;;;;;29.83;3.22;;;9.40;99.90;;;;;;5031899;28;20111;-68
2022/02/17 04:34:57;;;;;;;23.00;2.75;;;9.40;99.90;;;;;;5031494;28;20068;-67
2022/02/17 04:37:23;;;;;;;19.40;3.47;;;9.40;99.90;;;;;;5030720;28;20042;-66
2022/02/17 04:39:48;;;;;;;24.77;3.25;;;9.50;99.90;;;;;;5031403;28;20060;-67
2022/02/17 04:42:20;;;;;;;13.82;3.83;;;9.50;99.90;;;;;;5030653;28;20042;-67
2022/02/17 04:44:47;;;;;;;16.98;3.05;;;9.50;99.90;;;;;;5028118;28;20504;-67
2022/02/17 04:47:13;;;;;;;25.20;4.32;;;9.40;99.90;;;;;;5030341;28;20025;-67
2022/02/17 04:49:39;;;;;;;12.40;1.90;;;9.40;99.90;;;;;;5032049;28;20044;-65
2022/02/17 04:52:05;;;;;;;15.88;1.88;;;9.50;99.90;;;;;;5029623;28;20037;-67
2022/02/17 04:54:31;;;;;;;23.20;2.70;;;9.60;99.90;;;;;;5030006;28;20036;-67
2022/02/17 04:57:00;;;;;;;26.58;3.40;;;9.60;99.90;;;;;;5031194;28;20038;-67
2022/02/17 04:59:26;;;;;;;19.20;2.58;;;9.70;99.90;;;;;;5030234;28;20169;-68
2022/02/17 05:01:51;;;;;;;21.02;2.55;;;9.70;99.90;;;;;;5029742;28;20421;-64
2022/02/17 05:04:17;;;;;;;28.30;3.00;;;9.70;99.90;;;;;;5029780;28;20026;-67
2022/02/17 05:06:43;;;;;;;23.65;3.40;;;9.70;99.90;;;;;;5029905;28;20497;-67
2022/02/17 05:09:08;;;;;;;22.30;3.85;;;9.70;99.90;;;;;;5029699;28;20107;-64
2022/02/17 05:11:34;;;;;;;19.45;3.70;;;9.70;99.90;;;;;;5031008;28;20087;-68
2022/02/17 05:14:00;;;;;;;27.02;3.05;;;9.70;99.90;;;;;;5031020;28;20030;-67
2022/02/17 05:16:27;;;;;;;24.58;2.75;;;9.60;99.90;;;;;;5031029;28;20030;-66
2022/02/17 05:18:53;;;;;;;16.50;2.70;;;9.50;99.90;;;;;;5029782;28;20029;-66
2022/02/17 05:21:19;;;;;;;26.13;4.80;;;9.30;99.90;;;;;;5030379;28;20576;-68
2022/02/17 05:23:44;;;;;;;16.33;2.45;;;9.20;99.90;;;;;;5029432;28;20030;-66
2022/02/17 05:26:12;;;;;;;16.02;1.85;;;9.10;99.90;;;;;;5031005;28;20056;-68
2022/02/17 05:28:38;;;;;;;12.70;1.83;;;9.10;99.90;;;;;;5031144;28;20038;-67
2022/02/17 05:31:04;;;;;;;25.85;2.78;;;8.90;99.90;;;;;;5029749;28;20095;-66
2022/02/17 05:33:29;;;;;;;15.32;2.67;;;8.80;99.90;;;;;;5026301;28;20644;-67
2022/02/17 05:35:55;;;;;;;19.73;3.00;;;8.70;99.90;;;;;;5030191;28;20026;-69
2022/02/17 05:38:20;;;;;;;21.67;3.13;;;8.70;99.90;;;;;;5030167;28;20048;-67
2022/02/17 05:40:46;;;;;;;15.40;2.85;;;8.70;99.90;;;;;;5030497;28;20034;-69
2022/02/17 05:43:12;;;;;;;25.10;4.20;;;8.60;99.90;;;;;;5029968;28;20114;-64
2022/02/17 05:45:38;;;;;;;27.38;3.33;;;8.60;99.90;;;;;;5030455;28;20109;-64
2022/02/17 05:48:04;;;;;;;21.30;3.20;;;8.60;99.90;;;;;;5029347;28;20442;-63
2022/02/17 05:50:29;;;;;;;15.93;2.40;;;8.70;99.90;;;;;;5029790;28;20048;-63
2022/02/17 05:52:55;;;;;;;25.95;3.92;;;8.70;99.90;;;;;;5029511;28;20560;-67
2022/02/17 05:55:21;;;;;;;17.33;3.25;;;8.70;99.90;;;;;;5030053;28;20148;-65
2022/02/17 05:57:46;;;;;;;18.33;3.13;;;8.70;99.90;;;;;;5029542;28;20048;-64
2022/02/17 06:00:13;;;;;;;23.65;2.08;;;8.70;99.90;;;;;;5028888;28;20378;-64
2022/02/17 06:02:40;;;;;;;13.18;3.17;;;8.70;99.90;;;;;;5026326;28;20037;-64
2022/02/17 06:05:07;;;;;;;16.00;2.42;;;8.70;99.90;;;;;;5027337;28;20120;-67
2022/02/17 06:07:32;;;;;;;17.83;2.38;;;8.70;99.90;;;;;;5030168;28;20041;-65
2022/02/17 06:09:58;;;;;;;19.85;2.33;;;8.80;99.90;;;;;;5027625;28;20033;-70
2022/02/17 06:12:24;;;;;;;25.52;3.38;;;8.80;99.90;;;;;;5028146;28;20437;-63
2022/02/17 06:14:50;;;;;;;12.85;2.40;;;8.80;99.90;;;;;;5027482;28;20103;-64
2022/02/17 06:17:16;;;;;;;14.43;2.83;;;8.80;99.90;;;;;;5029556;28;20064;-63
2022/02/17 06:19:42;;;;;;;24.17;3.42;;;8.80;99.90;;;;;;5028626;28;20144;-64
2022/02/17 06:22:08;;;;;;;28.75;3.30;;;8.90;99.90;;;;;;5025768;28;20588;-63
2022/02/17 06:24:34;;;;;;;9.65;2.50;;;8.90;99.90;;;;;;5029499;28;20403;-65
2022/02/17 06:26:59;;;;;;;11.93;2.55;;;9.00;99.90;;;;;;5028250;28;20121;-67
2022/02/17 06:29:26;;;;;;;9.57;1.85;;;9.00;99.90;;;;;;5029291;28;20026;-64
2022/02/17 06:31:52;;;;;;;16.80;2.28;;;8.90;99.90;;;;;;5027509;28;20503;-66
2022/02/17 06:34:18;;;;;;;15.25;2.25;;;8.90;99.90;;;;;;5027529;28;20033;-65
2022/02/17 06:36:44;;;;;;;9.50;1.42;;;8.90;99.90;;;;;;5027803;28;20049;-64
2022/02/17 06:39:10;;;;;;;6.35;1.60;;;8.90;99.90;;;;;;5028392;28;20067;-67
2022/02/17 06:41:36;;;;;;;12.20;2.08;;;8.90;99.90;;;;;;5028671;28;20504;-67
2022/02/17 06:44:02;;;;;;;11.05;1.95;;;8.90;99.90;;;;;;5028193;28;20042;-64
2022/02/17 06:46:27;;;;;;;10.50;1.40;;;8.90;99.90;;;;;;5028712;28;20025;-64
2022/02/17 06:48:53;;;;;;;11.82;1.70;;;8.90;99.90;;;;;;5028294;28;20025;-65
2022/02/17 06:51:18;;;;;;;11.77;1.48;;;8.80;99.90;;;;;;5028275;28;20108;-65
2022/02/17 06:53:44;;;;;;;20.50;2.85;;;8.80;99.90;;;;;;5028327;28;20038;-64
2022/02/17 06:56:10;;;;;;;8.63;1.20;;;8.90;99.90;;;;;;5027831;28;20038;-64
2022/02/17 06:58:35;;;;;;;17.58;2.35;;;8.80;99.90;;;;;;5025679;28;20048;-68
2022/02/17 07:01:01;;;;;;;15.45;2.35;;;8.80;99.90;;;;;;5026851;28;20034;-65
2022/02/17 07:03:27;;;;;;;22.20;2.80;;;8.80;99.90;;;;;;5029027;28;20056;-63
2022/02/17 07:05:53;;;;;;;10.05;1.63;;;8.80;99.90;;;;;;5028536;28;20048;-65
2022/02/17 07:08:18;;;;;;;20.90;3.55;;;8.70;99.90;;;;;;5027770;28;20052;-63
2022/02/17 07:10:58;;;;;;;23.27;2.53;;;8.60;99.90;;;;;;5025048;28;20042;-65
2022/02/17 07:13:25;;;;;;;12.02;2.60;;;8.50;99.90;;;;;;5026614;28;20404;-65
2022/02/17 07:15:51;;;;;;;21.92;2.00;;;8.40;99.90;;;;;;5028695;28;20033;-64
2022/02/17 07:18:19;;;;;;;7.07;1.23;;;8.40;99.90;;;;;;5027276;28;20033;-66
2022/02/17 07:20:46;;;;;;;11.68;1.77;;;8.50;99.90;;;;;;5027787;28;20714;-64
2022/02/17 07:23:11;;;;;;;14.48;1.50;;;8.50;99.90;;;;;;5027473;28;20071;-64
2022/02/17 07:25:37;;;;;;;15.00;1.20;;;8.50;99.90;;;;;;5026859;28;20469;-68
2022/02/17 07:28:03;;;;;;;13.07;2.05;;;8.60;99.90;;;;;;5027630;28;20037;-68
2022/02/17 07:30:29;;;;;;;10.07;1.17;;;8.60;99.90;;;;;;5026124;28;20139;-64
2022/02/17 07:32:55;;;;;;;8.30;2.17;;;8.60;99.90;;;;;;5028139;28;20574;-65
2022/02/17 07:35:20;;;;;;;12.95;1.30;;;8.70;99.90;;;;;;5027263;28;20067;-64
2022/02/17 07:37:46;;;;;;;9.55;3.08;;;8.60;99.90;;;;;;5027933;28;20065;-67
2022/02/17 07:40:15;;;;;;;11.02;1.98;;;8.70;99.90;;;;;;5027192;28;20057;-64
2022/02/17 07:42:43;;;;;;;10.35;1.70;;;8.70;99.90;;;;;;5031861;28;20063;-69
2022/02/17 07:45:10;;;;;;;15.07;1.30;;;8.70;99.90;;;;;;5027152;28;20480;-64
2022/02/17 07:47:44;;;;;;;7.60;1.38;;;8.70;99.90;;;;;;5031690;28;20033;-64
2022/02/17 07:50:20;;;;;;;14.95;2.58;;;8.70;99.90;;;;;;5028822;28;20038;-64
2022/02/17 07:52:46;;;;;;;12.00;1.55;;;8.60;99.90;;;;;;5031505;28;20040;-64
2022/02/17 07:55:13;;;;;;;13.55;1.08;;;8.70;99.90;;;;;;5031097;28;20497;-66
2022/02/17 07:57:39;;;;;;;13.15;1.95;;;8.60;99.90;;;;;;5031348;28;20088;-64
2022/02/17 08:00:08;;;;;;;8.30;1.20;;;8.70;99.90;;;;;;5030481;28;20029;-63
2022/02/17 08:02:34;;;;;;;12.27;1.45;;;8.70;99.90;;;;;;5030565;28;20034;-66
2022/02/17 08:05:01;;;;;;;5.55;0.80;;;8.80;99.90;;;;;;5030792;28;20034;-65
2022/02/17 08:07:27;;;;;;;12.13;1.70;;;8.80;99.90;;;;;;5031161;28;20041;-64
2022/02/17 08:09:53;;;;;;;6.78;1.35;;;8.80;99.90;;;;;;5030624;28;20087;-64
2022/02/17 08:12:19;;;;;;;11.05;2.85;;;8.80;99.90;;;;;;5031017;28;20045;-65
2022/02/17 08:14:45;;;;;;;9.35;1.27;;;8.90;99.90;;;;;;5031078;28;20132;-64
2022/02/17 08:17:11;;;;;;;19.52;2.92;;;8.80;99.90;;;;;;5030119;28;20053;-65
2022/02/17 08:19:36;;;;;;;14.05;1.58;;;8.80;99.90;;;;;;5032940;28;20041;-64
2022/02/17 08:22:02;;;;;;;15.85;2.58;;;8.80;99.90;;;;;;5030399;28;20179;-66
2022/02/17 08:24:28;;;;;;;9.23;1.17;;;8.90;99.90;;;;;;5030595;28;20112;-67
2022/02/17 08:26:56;;;;;;;13.00;1.27;;;9.00;99.90;;;;;;5029280;28;20505;-65
2022/02/17 08:29:26;;;;;;;8.55;1.40;;;9.00;99.90;;;;;;5033744;28;20488;-64
2022/02/17 08:31:52;;;;;;;13.75;2.70;;;9.20;99.90;;;;;;5031474;28;20036;-64
2022/02/17 08:34:18;;;;;;;7.72;1.13;;;9.30;99.90;;;;;;5032614;28;20029;-68
2022/02/17 08:36:44;;;;;;;11.70;2.13;;;9.40;99.90;;;;;;5029556;28;20075;-68
2022/02/17 08:39:10;;;;;;;9.63;1.77;;;9.40;99.90;;;;;;5031206;28;20033;-68
2022/02/17 08:41:36;;;;;;;6.65;1.45;;;9.40;99.90;;;;;;5032618;28;20036;-63
2022/02/17 08:44:04;;;;;;;13.25;2.00;;;9.40;99.90;;;;;;5029896;28;20030;-67
2022/02/17 08:46:30;;;;;;;12.60;2.17;;;9.40;99.90;;;;;;5031579;28;20030;-67
2022/02/17 08:48:56;;;;;;;9.90;1.40;;;9.50;99.90;;;;;;5030344;28;20026;-63
2022/02/17 08:51:24;;;;;;;13.13;1.00;;;9.50;99.90;;;;;;5029842;28;20112;-64
2022/02/17 08:53:49;;;;;;;7.18;1.02;;;9.40;99.90;;;;;;5032377;28;20025;-64
2022/02/17 08:56:15;;;;;;;6.45;1.60;;;9.50;99.90;;;;;;5030952;28;20556;-65
2022/02/17 08:58:40;;;;;;;7.75;1.17;;;9.50;99.90;;;;;;5030217;28;20045;-67
2022/02/17 09:01:06;;;;;;;10.00;1.85;;;9.50;99.90;;;;;;5029883;28;20034;-64
2022/02/17 09:03:32;;;;;;;14.93;1.42;;;9.60;99.90;;;;;;5029221;28;20029;-64
2022/02/17 09:05:57;;;;;;;10.88;1.55;;;9.60;99.90;;;;;;5031099;28;20686;-66
2022/02/17 09:08:23;;;;;;;6.57;1.25;;;9.70;99.90;;;;;;5030245;28;20040;-63
2022/02/17 09:10:48;;;;;;;10.00;1.00;;;9.70;99.90;;;;;;5030568;28;20042;-65
2022/02/17 09:13:15;;;;;;;8.55;0.90;;;9.70;99.90;;;;;;5029963;28;20069;-67
2022/02/17 09:15:40;;;;;;;5.97;0.77;;;9.80;99.90;;;;;;5029964;28;20037;-66
2022/02/17 09:18:06;;;;;;;6.05;1.02;;;9.80;99.90;;;;;;5032561;28;20040;-64
2022/02/17 09:20:32;;;;;;;7.78;1.40;;;9.80;99.90;;;;;;5030807;28;20048;-64
2022/02/17 09:22:58;;;;;;;11.82;1.27;;;9.80;99.90;;;;;;5029948;28;20079;-64
2022/02/17 09:25:24;;;;;;;19.05;1.25;;;9.80;99.90;;;;;;5030276;28;20034;-64
2022/02/17 09:27:50;;;;;;;6.47;0.57;;;9.80;99.90;;;;;;5026165;28;20576;-66
2022/02/17 09:30:15;;;;;;;4.55;0.82;;;9.70;99.90;;;;;;5030531;28;20041;-67
2022/02/17 09:32:41;;;;;;;8.88;1.70;;;9.80;99.90;;;;;;5033228;28;20451;-64
2022/02/17 09:35:11;;;;;;;11.10;1.20;;;9.90;99.90;;;;;;5030034;28;20056;-68
2022/02/17 09:37:39;;;;;;;11.53;1.43;;;10.10;99.90;;;;;;5031433;28;20045;-66
2022/02/17 09:40:06;;;;;;;13.30;1.13;;;10.20;99.90;;;;;;5030581;28;20049;-66
2022/02/17 09:42:36;;;;;;;4.80;1.15;;;10.30;99.90;;;;;;5030378;28;20397;-66
2022/02/17 09:45:08;;;;;;;6.15;0.95;;;10.40;99.90;;;;;;5030764;28;20033;-69
2022/02/17 09:47:37;;;;;;;8.93;1.25;;;10.40;99.90;;;;;;5028762;28;20063;-64
2022/02/17 09:50:06;;;;;;;10.32;1.50;;;10.40;99.90;;;;;;5028450;28;20037;-68
2022/02/17 09:52:32;;;;;;;7.88;0.63;;;10.40;99.90;;;;;;5029266;28;20477;-64
2022/02/17 09:54:58;;;;;;;6.25;0.90;;;10.30;99.90;;;;;;5028938;28;20057;-65
2022/02/17 09:57:24;;;;;;;11.05;1.38;;;10.30;99.90;;;;;;5030642;28;20049;-64
2022/02/17 09:59:49;;;;;;;2.88;0.88;;;10.30;99.90;;;;;;5028712;28;20507;-68
2022/02/17 10:02:23;;;;;;;7.88;0.93;;;10.30;99.90;;;;;;5029263;28;20042;-64
2022/02/17 10:04:54;;;;;;;10.77;2.65;;;10.30;99.90;;;;;;5028893;28;20040;-65
2022/02/17 10:07:40;;;;;;;;;;;10.40;99.90;;;;;;5031302;28;20034;-67
2022/02/17 10:10:09;;;;;;;17.23;1.60;;;10.40;99.90;;;;;;5030039;28;20420;-63
2022/02/17 10:12:59;;;;;;;7.18;1.65;;;10.40;99.90;;;;;;5030069;28;20052;-65
2022/02/17 10:15:36;;;;;;;10.85;1.83;;;10.40;99.90;;;;;;5031679;28;20049;-64
2022/02/17 10:18:14;;;;;;;10.38;0.75;;;10.40;99.90;;;;;;5028180;28;20095;-64
2022/02/17 10:21:06;;;;;;;10.35;1.00;;;10.40;99.90;;;;;;5028472;28;20036;-64
2022/02/17 10:23:38;;;;;;;8.85;1.38;;;10.50;99.90;;;;;;5031499;28;20467;-64
2022/02/17 10:26:10;;;;;;;6.80;0.73;;;10.50;99.90;;;;;;5028106;28;20033;-65
2022/02/17 10:28:54;;;;;;;11.23;0.95;;;10.50;99.90;;;;;;5026253;28;20041;-64
2022/02/17 10:31:23;;;;;;;7.30;1.10;;;10.60;99.90;;;;;;5030113;28;20095;-64
2022/02/17 10:33:52;;;;;;;11.23;1.13;;;10.60;99.90;;;;;;5028712;28;20508;-64
2022/02/17 10:36:34;;;;;;;3.78;0.93;;;10.60;99.90;;;;;;5029565;28;20046;-64
2022/02/17 10:39:14;;;;;;;13.13;1.63;;;10.70;99.90;;;;;;5023038;28;20030;-64
2022/02/17 10:41:54;;;;;;;10.10;0.85;;;10.80;99.90;;;;;;5026525;28;20578;-64
2022/02/17 10:44:21;;;;;;;;;;;10.70;99.90;;;;;;5027747;28;20030;-66
2022/02/17 10:46:46;;;;;;;9.23;1.38;;;10.70;99.90;;;;;;5027464;28;20003;-64
2022/02/17 10:49:15;;;;;;;6.55;1.27;;;10.70;99.90;;;;;;5030366;28;20854;-67
2022/02/17 10:51:41;;;;;;;16.73;2.42;;;10.70;99.90;;;;;;5028470;28;20633;-67
2022/02/17 10:54:07;;;;;;;13.10;3.17;;;10.70;99.90;;;;;;5025505;28;20025;-64
2022/02/17 10:56:34;;;;;;;10.80;1.30;;;10.70;99.90;;;;;;5026995;28;20033;-64
2022/02/17 10:59:02;;;;;;;15.93;3.03;;;10.70;99.90;;;;;;5022496;28;20493;-64
2022/02/17 11:01:28;;;;;;;9.80;0.90;;;10.70;99.90;;;;;;5026798;28;20085;-64
2022/02/17 11:03:54;;;;;;;10.90;1.55;;;10.70;99.90;;;;;;5027049;28;20045;-65
2022/02/17 11:06:21;;;;;;;4.28;0.85;;;10.80;99.90;;;;;;5025209;28;20498;-67
2022/02/17 11:08:48;;;;;;;5.75;1.30;;;10.80;99.90;;;;;;5024829;28;20486;-65
2022/02/17 11:11:14;;;;;;;6.88;0.82;;;10.80;99.90;;;;;;5027949;28;20700;-67
2022/02/17 11:13:43;;;;;;;11.02;2.10;;;10.80;99.90;;;;;;5027182;28;20041;-63
2022/02/17 11:16:10;;;;;;;6.22;1.27;;;10.80;99.90;;;;;;5028066;28;20076;-65
2022/02/17 11:18:36;;;;;;;9.75;0.75;;;10.90;99.90;;;;;;5030919;28;20060;-65
2022/02/17 11:21:02;;;;;;;4.40;0.88;;;10.80;99.90;;;;;;5030869;28;20036;-64
2022/02/17 11:23:33;;;;;;;7.07;1.48;;;10.90;99.90;;;;;;5031095;28;20036;-64
2022/02/17 11:26:00;;;;;;;8.23;1.25;;;10.90;99.90;;;;;;5030704;28;20037;-67
2022/02/17 11:28:37;;;;;;;7.80;1.27;;;10.80;99.90;;;;;;5028897;28;20036;-64
2022/02/17 11:31:08;;;;;;;10.55;1.23;;;10.80;99.90;;;;;;5030559;28;20518;-65
2022/02/17 11:33:39;;;;;;;6.85;0.93;;;10.90;99.90;;;;;;5028749;28;20038;-63
2022/02/17 11:36:08;;;;;;;10.05;1.05;;;10.90;99.90;;;;;;5029800;28;20591;-66
2022/02/17 11:38:34;;;;;;;5.95;1.13;;;10.90;99.90;;;;;;5030554;28;20171;-65
2022/02/17 11:41:06;;;;;;;5.30;0.77;;;10.90;99.90;;;;;;5030266;28;20425;-67
2022/02/17 11:43:33;;;;;;;4.40;1.00;;;10.90;99.90;;;;;;5032613;28;20033;-66
2022/02/17 11:45:59;;;;;;;11.05;1.98;;;11.00;99.90;;;;;;5031324;28;20033;-66
2022/02/17 11:48:38;;;;;;;8.52;0.82;;;11.10;99.90;;;;;;5028632;28;20083;-69
2022/02/17 11:51:17;;;;;;;6.78;0.40;;;11.20;99.90;;;;;;5029301;28;20038;-64
2022/02/17 11:53:45;;;;;;;5.47;1.17;;;11.20;99.90;;;;;;5032007;28;20110;-64
2022/02/17 11:56:16;;;;;;;5.68;0.65;;;11.10;99.90;;;;;;5031062;28;20103;-64
2022/02/17 11:58:49;;;;;;;6.28;0.82;;;11.20;99.90;;;;;;5029490;28;20329;-64
2022/02/17 12:01:24;;;;;;;9.05;0.82;;;11.10;99.90;;;;;;5027548;28;20476;-67
2022/02/17 12:04:09;;;;;;;10.13;0.85;;;11.00;99.90;;;;;;5029192;28;20064;-64
2022/02/17 12:06:56;;;;;;;8.32;1.00;;;10.90;99.90;;;;;;5030239;28;20424;-68
2022/02/17 12:09:44;;;;;;;8.52;1.50;;;10.80;99.90;;;;;;5031624;28;20026;-65
2022/02/17 12:12:13;;;;;;;6.70;1.67;;;10.80;99.90;;;;;;5032000;28;20556;-65
2022/02/17 12:14:45;;;;;;;5.53;0.70;;;10.70;99.90;;;;;;5029947;28;20497;-65
2022/02/17 12:17:10;;;;;;;4.97;1.42;;;10.70;99.90;;;;;;5033029;28;20037;-64
2022/02/17 12:19:36;;;;;;;3.58;0.98;;;10.70;99.90;;;;;;5031517;28;20037;-66
2022/02/17 12:22:13;;;;;;;11.50;1.30;;;10.70;99.90;;;;;;5030216;28;20044;-67
2022/02/17 12:24:42;;;;;;;7.93;1.42;;;10.80;99.90;;;;;;5029736;28;20033;-67
2022/02/17 12:27:18;;;;;;;12.43;1.63;;;10.90;99.90;;;;;;5028376;28;20037;-67
2022/02/17 12:29:45;;;;;;;5.88;1.08;;;10.90;99.90;;;;;;5031345;28;20121;-65
2022/02/17 12:32:17;;;;;;;6.78;0.98;;;10.90;99.90;;;;;;5028161;28;20539;-67
2022/02/17 12:34:43;;;;;;;7.63;1.17;;;10.90;99.90;;;;;;5029700;28;20088;-66
2022/02/17 12:37:19;;;;;;;9.88;1.20;;;10.90;99.90;;;;;;5028594;28;20042;-66
2022/02/17 12:39:46;;;;;;;7.28;0.88;;;11.00;99.90;;;;;;5030705;28;20041;-67
2022/02/17 12:42:13;;;;;;;10.35;2.05;;;11.00;99.90;;;;;;5030541;28;20045;-66
2022/02/17 12:44:41;;;;;;;5.43;0.63;;;11.00;99.90;;;;;;5028797;28;20036;-66
2022/02/17 12:47:11;;;;;;;4.00;1.15;;;11.00;99.90;;;;;;5028282;28;20045;-67